sensor_id;sensor_type;location;lat;lon;timestamp;temperature;humidity
59505;DHT22;45321;53.200;5.814;2023-02-01T00:00:00;7.20;78.50
59505;DHT22;45321;53.200;5.814;2023-02-01T00:02:26;7.30;78.50
59505;DHT22;45321;53.200;5.814;2023-02-01T00:04:52;7.20;78.50
59505;DHT22;45321;53.200;5.814;2023-02-01T00:07:18;7.30;78.40
59505;DHT22;45321;53.200;5.814;2023-02-01T00:09:43;7.20;78.40
59505;DHT22;45321;53.200;5.814;2023-02-01T00:12:09;7.20;78.40
59505;DHT22;45321;53.200;5.814;2023-02-01T00:14:35;7.30;78.30
59505;DHT22;45321;53.200;5.814;2023-02-01T00:17:06;7.20;78.30
59505;DHT22;45321;53.200;5.814;2023-02-01T00:19:33;7.20;78.20
59505;DHT22;45321;53.200;5.814;2023-02-01T00:21:59;7.20;78.30
59505;DHT22;45321;53.200;5.814;2023-02-01T00:24:25;7.20;78.50
59505;DHT22;45321;53.200;5.814;2023-02-01T00:26:51;7.20;78.40
59505;DHT22;45321;53.200;5.814;2023-02-01T00:29:19;7.30;78.50
59505;DHT22;45321;53.200;5.814;2023-02-01T00:31:45;7.30;78.60
59505;DHT22;45321;53.200;5.814;2023-02-01T00:34:15;7.30;78.60
59505;DHT22;45321;53.200;5.814;2023-02-01T00:36:43;7.20;78.80
59505;DHT22;45321;53.200;5.814;2023-02-01T00:39:09;7.20;78.80
59505;DHT22;45321;53.200;5.814;2023-02-01T00:41:36;7.30;78.90
59505;DHT22;45321;53.200;5.814;2023-02-01T00:44:02;7.30;79.00
59505;DHT22;45321;53.200;5.814;2023-02-01T00:46:28;7.30;79.10
59505;DHT22;45321;53.200;5.814;2023-02-01T00:48:54;7.30;79.20
59505;DHT22;45321;53.200;5.814;2023-02-01T00:51:25;7.30;79.20
59505;DHT22;45321;53.200;5.814;2023-02-01T00:53:52;7.30;79.20
59505;DHT22;45321;53.200;5.814;2023-02-01T00:56:17;7.30;79.20
59505;DHT22;45321;53.200;5.814;2023-02-01T00:58:43;7.20;79.20
59505;DHT22;45321;53.200;5.814;2023-02-01T01:01:14;7.30;79.10
59505;DHT22;45321;53.200;5.814;2023-02-01T01:04:01;7.30;79.00
59505;DHT22;45321;53.200;5.814;2023-02-01T01:06:29;7.30;79.00
59505;DHT22;45321;53.200;5.814;2023-02-01T01:08:57;7.30;79.10
59505;DHT22;45321;53.200;5.814;2023-02-01T01:11:27;7.30;78.80
59505;DHT22;45321;53.200;5.814;2023-02-01T01:13:53;7.30;78.70
59505;DHT22;45321;53.200;5.814;2023-02-01T01:16:21;7.30;78.80
59505;DHT22;45321;53.200;5.814;2023-02-01T01:18:51;7.30;78.80
59505;DHT22;45321;53.200;5.814;2023-02-01T01:21:17;7.30;79.00
59505;DHT22;45321;53.200;5.814;2023-02-01T01:23:44;7.30;79.40
59505;DHT22;45321;53.200;5.814;2023-02-01T01:26:13;7.30;80.10
59505;DHT22;45321;53.200;5.814;2023-02-01T01:28:39;7.30;80.60
59505;DHT22;45321;53.200;5.814;2023-02-01T01:31:13;7.30;80.90
59505;DHT22;45321;53.200;5.814;2023-02-01T01:33:39;7.30;81.30
59505;DHT22;45321;53.200;5.814;2023-02-01T01:36:09;7.30;81.70
59505;DHT22;45321;53.200;5.814;2023-02-01T01:38:40;7.20;82.00
59505;DHT22;45321;53.200;5.814;2023-02-01T01:41:05;7.20;82.10
59505;DHT22;45321;53.200;5.814;2023-02-01T01:43:54;7.20;82.40
59505;DHT22;45321;53.200;5.814;2023-02-01T01:46:23;7.10;82.60
59505;DHT22;45321;53.200;5.814;2023-02-01T01:48:53;7.10;82.70
59505;DHT22;45321;53.200;5.814;2023-02-01T01:51:23;7.10;82.90
59505;DHT22;45321;53.200;5.814;2023-02-01T01:57:29;7.00;83.10
59505;DHT22;45321;53.200;5.814;2023-02-01T02:00:11;7.00;83.10
59505;DHT22;45321;53.200;5.814;2023-02-01T02:02:39;6.90;83.30
59505;DHT22;45321;53.200;5.814;2023-02-01T02:05:06;6.90;83.20
59505;DHT22;45321;53.200;5.814;2023-02-01T02:07:35;6.90;83.20
59505;DHT22;45321;53.200;5.814;2023-02-01T02:10:05;6.90;83.00
59505;DHT22;45321;53.200;5.814;2023-02-01T02:12:31;7.00;82.90
59505;DHT22;45321;53.200;5.814;2023-02-01T02:14:58;7.00;82.70
59505;DHT22;45321;53.200;5.814;2023-02-01T02:20:52;7.00;82.50
59505;DHT22;45321;53.200;5.814;2023-02-01T02:23:51;7.00;82.20
59505;DHT22;45321;53.200;5.814;2023-02-01T02:43:31;7.10;80.70
59505;DHT22;45321;53.200;5.814;2023-02-01T02:46:22;7.20;80.60
59505;DHT22;45321;53.200;5.814;2023-02-01T02:49:35;7.10;80.70
59505;DHT22;45321;53.200;5.814;2023-02-01T02:52:08;7.10;80.40
59505;DHT22;45321;53.200;5.814;2023-02-01T02:54:54;7.10;80.40
59505;DHT22;45321;53.200;5.814;2023-02-01T02:57:32;7.10;80.50
59505;DHT22;45321;53.200;5.814;2023-02-01T03:00:20;7.10;80.50
59505;DHT22;45321;53.200;5.814;2023-02-01T03:03:05;7.20;80.70
59505;DHT22;45321;53.200;5.814;2023-02-01T03:05:50;7.20;80.60
59505;DHT22;45321;53.200;5.814;2023-02-01T03:08:23;7.20;80.70
59505;DHT22;45321;53.200;5.814;2023-02-01T03:19:05;7.20;80.60
59505;DHT22;45321;53.200;5.814;2023-02-01T03:21:48;7.20;80.70
59505;DHT22;45321;53.200;5.814;2023-02-01T03:24:17;7.20;80.60
59505;DHT22;45321;53.200;5.814;2023-02-01T03:26:54;7.30;80.60
59505;DHT22;45321;53.200;5.814;2023-02-01T03:29:37;7.20;80.70
59505;DHT22;45321;53.200;5.814;2023-02-01T03:32:03;7.20;80.80
59505;DHT22;45321;53.200;5.814;2023-02-01T03:34:29;7.20;80.90
59505;DHT22;45321;53.200;5.814;2023-02-01T03:37:01;7.20;80.90
59505;DHT22;45321;53.200;5.814;2023-02-01T03:42:28;7.20;81.20
59505;DHT22;45321;53.200;5.814;2023-02-01T03:45:14;7.20;81.30
59505;DHT22;45321;53.200;5.814;2023-02-01T03:47:46;7.20;81.40
59505;DHT22;45321;53.200;5.814;2023-02-01T03:50:24;7.20;81.70
59505;DHT22;45321;53.200;5.814;2023-02-01T03:52:56;7.20;81.80
59505;DHT22;45321;53.200;5.814;2023-02-01T03:55:25;7.20;81.80
59505;DHT22;45321;53.200;5.814;2023-02-01T03:58:06;7.20;81.70
59505;DHT22;45321;53.200;5.814;2023-02-01T04:00:32;7.20;81.80
59505;DHT22;45321;53.200;5.814;2023-02-01T04:02:58;7.20;81.80
59505;DHT22;45321;53.200;5.814;2023-02-01T04:05:24;7.20;81.70
59505;DHT22;45321;53.200;5.814;2023-02-01T04:07:50;7.20;81.70
59505;DHT22;45321;53.200;5.814;2023-02-01T04:10:15;7.10;81.70
59505;DHT22;45321;53.200;5.814;2023-02-01T04:12:41;7.10;81.60
59505;DHT22;45321;53.200;5.814;2023-02-01T04:15:08;7.10;81.70
59505;DHT22;45321;53.200;5.814;2023-02-01T04:17:34;7.00;81.70
59505;DHT22;45321;53.200;5.814;2023-02-01T04:19:59;7.00;81.80
59505;DHT22;45321;53.200;5.814;2023-02-01T04:22:25;7.00;81.90
59505;DHT22;45321;53.200;5.814;2023-02-01T04:24:51;6.90;82.00
59505;DHT22;45321;53.200;5.814;2023-02-01T04:27:16;6.90;82.10
59505;DHT22;45321;53.200;5.814;2023-02-01T04:29:42;6.90;82.10
59505;DHT22;45321;53.200;5.814;2023-02-01T04:32:10;6.90;82.20
59505;DHT22;45321;53.200;5.814;2023-02-01T04:34:36;6.80;82.30
59505;DHT22;45321;53.200;5.814;2023-02-01T04:37:02;6.80;82.30
59505;DHT22;45321;53.200;5.814;2023-02-01T04:39:28;6.80;82.40
59505;DHT22;45321;53.200;5.814;2023-02-01T04:41:54;6.80;82.40
59505;DHT22;45321;53.200;5.814;2023-02-01T04:44:20;6.80;82.50
59505;DHT22;45321;53.200;5.814;2023-02-01T04:46:46;6.80;82.50
59505;DHT22;45321;53.200;5.814;2023-02-01T04:49:13;6.80;82.70
59505;DHT22;45321;53.200;5.814;2023-02-01T04:51:40;6.90;82.60
59505;DHT22;45321;53.200;5.814;2023-02-01T04:54:06;6.90;82.70
59505;DHT22;45321;53.200;5.814;2023-02-01T04:56:32;6.90;82.70
59505;DHT22;45321;53.200;5.814;2023-02-01T04:58:59;7.00;82.70
59505;DHT22;45321;53.200;5.814;2023-02-01T05:01:24;7.00;82.60
59505;DHT22;45321;53.200;5.814;2023-02-01T05:03:50;7.00;82.50
59505;DHT22;45321;53.200;5.814;2023-02-01T05:06:17;7.10;82.40
59505;DHT22;45321;53.200;5.814;2023-02-01T05:08:42;7.10;82.20
59505;DHT22;45321;53.200;5.814;2023-02-01T05:11:08;7.10;82.10
59505;DHT22;45321;53.200;5.814;2023-02-01T05:13:54;7.00;82.10
59505;DHT22;45321;53.200;5.814;2023-02-01T05:16:20;7.10;82.10
59505;DHT22;45321;53.200;5.814;2023-02-01T05:18:46;7.10;82.00
59505;DHT22;45321;53.200;5.814;2023-02-01T05:21:11;7.10;82.00
59505;DHT22;45321;53.200;5.814;2023-02-01T05:23:37;7.00;82.10
59505;DHT22;45321;53.200;5.814;2023-02-01T05:26:23;7.10;82.20
59505;DHT22;45321;53.200;5.814;2023-02-01T05:28:49;7.00;82.30
59505;DHT22;45321;53.200;5.814;2023-02-01T05:31:15;7.00;82.30
59505;DHT22;45321;53.200;5.814;2023-02-01T05:33:41;7.00;82.30
59505;DHT22;45321;53.200;5.814;2023-02-01T05:36:07;7.00;82.20
59505;DHT22;45321;53.200;5.814;2023-02-01T05:38:32;7.00;82.20
59505;DHT22;45321;53.200;5.814;2023-02-01T05:41:01;7.00;82.30
59505;DHT22;45321;53.200;5.814;2023-02-01T05:43:27;6.90;82.40
59505;DHT22;45321;53.200;5.814;2023-02-01T05:45:53;6.90;82.50
59505;DHT22;45321;53.200;5.814;2023-02-01T05:48:19;6.90;82.60
59505;DHT22;45321;53.200;5.814;2023-02-01T05:50:44;6.90;82.90
59505;DHT22;45321;53.200;5.814;2023-02-01T05:53:11;6.90;83.00
59505;DHT22;45321;53.200;5.814;2023-02-01T05:55:37;6.80;83.10
59505;DHT22;45321;53.200;5.814;2023-02-01T05:58:03;6.80;83.10
59505;DHT22;45321;53.200;5.814;2023-02-01T06:00:29;6.80;83.30
59505;DHT22;45321;53.200;5.814;2023-02-01T06:02:58;6.80;83.40
59505;DHT22;45321;53.200;5.814;2023-02-01T06:05:26;6.80;83.50
59505;DHT22;45321;53.200;5.814;2023-02-01T06:07:52;6.80;83.40
59505;DHT22;45321;53.200;5.814;2023-02-01T06:10:18;6.80;83.50
59505;DHT22;45321;53.200;5.814;2023-02-01T06:12:44;6.80;83.50
59505;DHT22;45321;53.200;5.814;2023-02-01T06:15:13;6.80;83.40
59505;DHT22;45321;53.200;5.814;2023-02-01T06:17:41;6.80;83.40
59505;DHT22;45321;53.200;5.814;2023-02-01T06:20:09;6.80;83.40
59505;DHT22;45321;53.200;5.814;2023-02-01T06:22:35;6.90;83.50
59505;DHT22;45321;53.200;5.814;2023-02-01T06:25:03;6.80;83.40
59505;DHT22;45321;53.200;5.814;2023-02-01T06:27:29;6.90;83.40
59505;DHT22;45321;53.200;5.814;2023-02-01T06:29:55;6.90;83.40
59505;DHT22;45321;53.200;5.814;2023-02-01T06:32:21;6.90;83.40
59505;DHT22;45321;53.200;5.814;2023-02-01T06:34:48;6.90;83.40
59505;DHT22;45321;53.200;5.814;2023-02-01T06:37:14;6.90;83.40
59505;DHT22;45321;53.200;5.814;2023-02-01T06:39:39;6.90;83.30
59505;DHT22;45321;53.200;5.814;2023-02-01T06:42:05;6.90;83.40
59505;DHT22;45321;53.200;5.814;2023-02-01T06:44:31;6.90;83.30
59505;DHT22;45321;53.200;5.814;2023-02-01T06:46:57;6.90;83.30
59505;DHT22;45321;53.200;5.814;2023-02-01T06:49:23;6.90;83.30
59505;DHT22;45321;53.200;5.814;2023-02-01T06:51:49;6.90;83.40
59505;DHT22;45321;53.200;5.814;2023-02-01T06:54:18;6.90;83.60
59505;DHT22;45321;53.200;5.814;2023-02-01T06:56:49;6.80;83.70
59505;DHT22;45321;53.200;5.814;2023-02-01T06:59:14;6.80;83.80
59505;DHT22;45321;53.200;5.814;2023-02-01T07:01:40;6.90;83.90
59505;DHT22;45321;53.200;5.814;2023-02-01T07:04:06;6.80;83.90
59505;DHT22;45321;53.200;5.814;2023-02-01T07:06:32;6.80;84.00
59505;DHT22;45321;53.200;5.814;2023-02-01T07:08:58;6.80;84.10
59505;DHT22;45321;53.200;5.814;2023-02-01T07:11:24;6.80;84.20
59505;DHT22;45321;53.200;5.814;2023-02-01T07:13:52;6.80;84.20
59505;DHT22;45321;53.200;5.814;2023-02-01T07:16:18;6.80;84.30
59505;DHT22;45321;53.200;5.814;2023-02-01T07:18:45;6.80;84.30
59505;DHT22;45321;53.200;5.814;2023-02-01T07:21:11;6.80;84.30
59505;DHT22;45321;53.200;5.814;2023-02-01T07:23:37;6.80;84.20
59505;DHT22;45321;53.200;5.814;2023-02-01T07:26:06;6.80;84.20
59505;DHT22;45321;53.200;5.814;2023-02-01T07:28:35;6.80;84.10
59505;DHT22;45321;53.200;5.814;2023-02-01T07:31:04;6.80;84.10
59505;DHT22;45321;53.200;5.814;2023-02-01T07:33:30;6.80;84.10
59505;DHT22;45321;53.200;5.814;2023-02-01T07:35:56;6.80;84.00
59505;DHT22;45321;53.200;5.814;2023-02-01T07:38:22;6.80;83.90
59505;DHT22;45321;53.200;5.814;2023-02-01T07:40:49;6.80;84.00
59505;DHT22;45321;53.200;5.814;2023-02-01T07:43:15;6.80;84.10
59505;DHT22;45321;53.200;5.814;2023-02-01T07:45:41;6.80;84.20
59505;DHT22;45321;53.200;5.814;2023-02-01T07:48:07;6.80;84.40
59505;DHT22;45321;53.200;5.814;2023-02-01T07:50:33;6.80;84.50
59505;DHT22;45321;53.200;5.814;2023-02-01T07:52:59;6.80;84.60
59505;DHT22;45321;53.200;5.814;2023-02-01T07:55:26;6.80;84.70
59505;DHT22;45321;53.200;5.814;2023-02-01T07:57:52;6.80;84.80
59505;DHT22;45321;53.200;5.814;2023-02-01T08:00:18;6.80;84.80
59505;DHT22;45321;53.200;5.814;2023-02-01T08:03:04;6.80;84.80
59505;DHT22;45321;53.200;5.814;2023-02-01T08:05:30;6.80;84.70
59505;DHT22;45321;53.200;5.814;2023-02-01T08:07:55;6.80;84.70
59505;DHT22;45321;53.200;5.814;2023-02-01T08:10:21;6.80;84.70
59505;DHT22;45321;53.200;5.814;2023-02-01T08:12:47;6.90;84.60
59505;DHT22;45321;53.200;5.814;2023-02-01T08:15:17;6.80;84.50
59505;DHT22;45321;53.200;5.814;2023-02-01T08:17:50;6.90;84.30
59505;DHT22;45321;53.200;5.814;2023-02-01T08:20:17;6.90;84.20
59505;DHT22;45321;53.200;5.814;2023-02-01T08:22:44;6.90;84.00
59505;DHT22;45321;53.200;5.814;2023-02-01T08:25:12;7.00;83.90
59505;DHT22;45321;53.200;5.814;2023-02-01T08:27:38;7.10;83.90
59505;DHT22;45321;53.200;5.814;2023-02-01T08:30:05;7.00;83.80
59505;DHT22;45321;53.200;5.814;2023-02-01T08:32:33;7.10;83.60
59505;DHT22;45321;53.200;5.814;2023-02-01T08:34:59;7.10;83.40
59505;DHT22;45321;53.200;5.814;2023-02-01T08:37:25;7.10;83.30
59505;DHT22;45321;53.200;5.814;2023-02-01T08:39:50;7.20;83.20
59505;DHT22;45321;53.200;5.814;2023-02-01T08:42:17;7.20;82.80
59505;DHT22;45321;53.200;5.814;2023-02-01T08:45:02;7.20;82.70
59505;DHT22;45321;53.200;5.814;2023-02-01T08:47:29;7.20;82.70
59505;DHT22;45321;53.200;5.814;2023-02-01T08:49:55;7.20;82.40
59505;DHT22;45321;53.200;5.814;2023-02-01T08:52:21;7.20;82.30
59505;DHT22;45321;53.200;5.814;2023-02-01T08:54:49;7.30;82.40
59505;DHT22;45321;53.200;5.814;2023-02-01T08:57:15;7.30;82.20
59505;DHT22;45321;53.200;5.814;2023-02-01T08:59:41;7.20;82.10
59505;DHT22;45321;53.200;5.814;2023-02-01T09:02:13;7.30;82.20
59505;DHT22;45321;53.200;5.814;2023-02-01T09:04:39;7.30;82.10
59505;DHT22;45321;53.200;5.814;2023-02-01T09:07:05;7.30;82.10
59505;DHT22;45321;53.200;5.814;2023-02-01T09:09:31;7.30;82.00
59505;DHT22;45321;53.200;5.814;2023-02-01T09:11:56;7.30;82.00
59505;DHT22;45321;53.200;5.814;2023-02-01T09:14:23;7.30;82.20
59505;DHT22;45321;53.200;5.814;2023-02-01T09:16:49;7.30;82.90
59505;DHT22;45321;53.200;5.814;2023-02-01T09:19:15;7.30;82.90
59505;DHT22;45321;53.200;5.814;2023-02-01T09:21:41;7.30;83.00
59505;DHT22;45321;53.200;5.814;2023-02-01T09:24:06;7.30;82.90
59505;DHT22;45321;53.200;5.814;2023-02-01T09:26:33;7.30;82.80
59505;DHT22;45321;53.200;5.814;2023-02-01T09:29:00;7.30;82.80
59505;DHT22;45321;53.200;5.814;2023-02-01T09:31:25;7.30;82.80
59505;DHT22;45321;53.200;5.814;2023-02-01T09:33:51;7.30;82.90
59505;DHT22;45321;53.200;5.814;2023-02-01T09:36:17;7.30;83.00
59505;DHT22;45321;53.200;5.814;2023-02-01T09:38:45;7.30;83.10
59505;DHT22;45321;53.200;5.814;2023-02-01T09:46:35;7.20;83.40
59505;DHT22;45321;53.200;5.814;2023-02-01T09:49:04;7.20;83.30
59505;DHT22;45321;53.200;5.814;2023-02-01T09:51:37;7.20;83.30
59505;DHT22;45321;53.200;5.814;2023-02-01T09:54:15;7.30;83.20
59505;DHT22;45321;53.200;5.814;2023-02-01T09:59:39;7.30;83.00
59505;DHT22;45321;53.200;5.814;2023-02-01T10:02:43;7.30;82.90
59505;DHT22;45321;53.200;5.814;2023-02-01T10:05:15;7.30;82.90
59505;DHT22;45321;53.200;5.814;2023-02-01T10:08:30;7.30;82.90
59505;DHT22;45321;53.200;5.814;2023-02-01T10:11:41;7.30;82.80
59505;DHT22;45321;53.200;5.814;2023-02-01T10:28:41;7.80;81.10
59505;DHT22;45321;53.200;5.814;2023-02-01T10:31:11;7.80;80.80
59505;DHT22;45321;53.200;5.814;2023-02-01T10:33:55;7.80;80.30
59505;DHT22;45321;53.200;5.814;2023-02-01T10:36:28;7.90;80.20
59505;DHT22;45321;53.200;5.814;2023-02-01T10:38:58;7.90;80.30
59505;DHT22;45321;53.200;5.814;2023-02-01T10:41:41;7.90;80.30
59505;DHT22;45321;53.200;5.814;2023-02-01T10:44:31;7.90;80.80
59505;DHT22;45321;53.200;5.814;2023-02-01T10:47:04;7.90;81.30
59505;DHT22;45321;53.200;5.814;2023-02-01T10:55:55;8.00;80.70
59505;DHT22;45321;53.200;5.814;2023-02-01T10:58:31;8.00;80.40
59505;DHT22;45321;53.200;5.814;2023-02-01T11:01:06;8.00;80.30
59505;DHT22;45321;53.200;5.814;2023-02-01T11:03:42;8.10;80.30
59505;DHT22;45321;53.200;5.814;2023-02-01T11:08:52;8.10;81.10
59505;DHT22;45321;53.200;5.814;2023-02-01T11:11:20;8.00;81.50
59505;DHT22;45321;53.200;5.814;2023-02-01T11:13:56;8.00;81.70
59505;DHT22;45321;53.200;5.814;2023-02-01T11:16:37;8.00;81.50
59505;DHT22;45321;53.200;5.814;2023-02-01T11:19:06;8.10;81.70
59505;DHT22;45321;53.200;5.814;2023-02-01T11:21:35;8.00;81.50
59505;DHT22;45321;53.200;5.814;2023-02-01T11:24:04;8.10;81.50
59505;DHT22;45321;53.200;5.814;2023-02-01T11:26:31;8.10;81.70
59505;DHT22;45321;53.200;5.814;2023-02-01T11:29:02;8.10;81.90
59505;DHT22;45321;53.200;5.814;2023-02-01T11:31:29;8.10;81.90
59505;DHT22;45321;53.200;5.814;2023-02-01T11:33:59;8.10;81.90
59505;DHT22;45321;53.200;5.814;2023-02-01T11:36:29;8.10;81.60
59505;DHT22;45321;53.200;5.814;2023-02-01T11:39:20;8.20;81.30
59505;DHT22;45321;53.200;5.814;2023-02-01T11:42:12;8.20;81.20
59505;DHT22;45321;53.200;5.814;2023-02-01T11:44:44;8.30;81.10
59505;DHT22;45321;53.200;5.814;2023-02-01T11:49:45;8.30;81.40
59505;DHT22;45321;53.200;5.814;2023-02-01T12:09:21;8.70;81.10
59505;DHT22;45321;53.200;5.814;2023-02-01T12:14:47;8.60;81.10
59505;DHT22;45321;53.200;5.814;2023-02-01T12:17:51;8.60;81.20
59505;DHT22;45321;53.200;5.814;2023-02-01T12:23:32;8.60;81.50
59505;DHT22;45321;53.200;5.814;2023-02-01T12:38:04;8.80;82.20
59505;DHT22;45321;53.200;5.814;2023-02-01T12:43:11;8.90;81.60
59505;DHT22;45321;53.200;5.814;2023-02-01T12:46:10;8.80;81.50
59505;DHT22;45321;53.200;5.814;2023-02-01T12:48:55;8.80;81.40
59505;DHT22;45321;53.200;5.814;2023-02-01T12:51:31;8.80;81.60
59505;DHT22;45321;53.200;5.814;2023-02-01T12:57:04;9.20;81.80
59505;DHT22;45321;53.200;5.814;2023-02-01T12:59:47;9.30;81.20
59505;DHT22;45321;53.200;5.814;2023-02-01T13:05:44;9.20;81.10
59505;DHT22;45321;53.200;5.814;2023-02-01T13:08:16;9.10;81.40
59505;DHT22;45321;53.200;5.814;2023-02-01T13:11:23;9.00;81.80
59505;DHT22;45321;53.200;5.814;2023-02-01T13:17:05;8.90;82.20
59505;DHT22;45321;53.200;5.814;2023-02-01T13:22:34;8.80;82.30
59505;DHT22;45321;53.200;5.814;2023-02-01T13:28:10;8.80;82.40
59505;DHT22;45321;53.200;5.814;2023-02-01T13:37:32;8.80;82.70
59505;DHT22;45321;53.200;5.814;2023-02-01T13:42:31;8.90;82.60
59505;DHT22;45321;53.200;5.814;2023-02-01T13:45:26;9.00;82.70
59505;DHT22;45321;53.200;5.814;2023-02-01T13:48:03;9.20;82.60
59505;DHT22;45321;53.200;5.814;2023-02-01T13:50:38;9.40;82.30
59505;DHT22;45321;53.200;5.814;2023-02-01T13:53:17;9.60;81.30
59505;DHT22;45321;53.200;5.814;2023-02-01T13:55:50;9.60;81.10
59505;DHT22;45321;53.200;5.814;2023-02-01T13:58:41;9.50;80.90
59505;DHT22;45321;53.200;5.814;2023-02-01T14:04:00;9.30;81.10
59505;DHT22;45321;53.200;5.814;2023-02-01T14:06:42;9.20;81.50
59505;DHT22;45321;53.200;5.814;2023-02-01T14:09:19;9.20;81.70
59505;DHT22;45321;53.200;5.814;2023-02-01T14:15:36;9.20;82.00
59505;DHT22;45321;53.200;5.814;2023-02-01T14:24:26;9.30;81.50
59505;DHT22;45321;53.200;5.814;2023-02-01T14:27:24;9.30;81.40
59505;DHT22;45321;53.200;5.814;2023-02-01T14:29:53;9.30;81.40
59505;DHT22;45321;53.200;5.814;2023-02-01T14:32:38;9.20;81.60
59505;DHT22;45321;53.200;5.814;2023-02-01T14:37:50;9.30;82.00
59505;DHT22;45321;53.200;5.814;2023-02-01T14:40:24;9.40;81.90
59505;DHT22;45321;53.200;5.814;2023-02-01T14:42:51;9.70;81.60
59505;DHT22;45321;53.200;5.814;2023-02-01T14:50:39;10.80;79.10
59505;DHT22;45321;53.200;5.814;2023-02-01T14:53:21;11.00;77.70
59505;DHT22;45321;53.200;5.814;2023-02-01T14:58:53;10.70;77.50
59505;DHT22;45321;53.200;5.814;2023-02-01T15:01:36;10.50;77.50
59505;DHT22;45321;53.200;5.814;2023-02-01T15:04:10;10.30;78.10
59505;DHT22;45321;53.200;5.814;2023-02-01T15:07:09;10.10;78.30
59505;DHT22;45321;53.200;5.814;2023-02-01T15:09:47;9.90;78.60
59505;DHT22;45321;53.200;5.814;2023-02-01T15:12:22;9.80;78.90
59505;DHT22;45321;53.200;5.814;2023-02-01T15:15:16;9.70;79.00
59505;DHT22;45321;53.200;5.814;2023-02-01T15:17:57;9.60;79.30
59505;DHT22;45321;53.200;5.814;2023-02-01T15:20:26;9.40;79.40
59505;DHT22;45321;53.200;5.814;2023-02-01T15:23:16;9.30;79.60
59505;DHT22;45321;53.200;5.814;2023-02-01T15:25:56;9.30;79.80
59505;DHT22;45321;53.200;5.814;2023-02-01T15:28:23;9.10;80.00
59505;DHT22;45321;53.200;5.814;2023-02-01T15:30:57;9.10;80.20
59505;DHT22;45321;53.200;5.814;2023-02-01T15:33:32;9.10;80.30
59505;DHT22;45321;53.200;5.814;2023-02-01T15:36:18;9.10;80.50
59505;DHT22;45321;53.200;5.814;2023-02-01T15:42:23;9.00;80.60
59505;DHT22;45321;53.200;5.814;2023-02-01T15:44:55;9.00;80.70
59505;DHT22;45321;53.200;5.814;2023-02-01T15:48:25;8.90;80.70
59505;DHT22;45321;53.200;5.814;2023-02-01T15:50:39;8.90;80.80
59505;DHT22;45321;53.200;5.814;2023-02-01T15:53:05;8.80;80.90
59505;DHT22;45321;53.200;5.814;2023-02-01T15:55:39;8.70;81.10
59505;DHT22;45321;53.200;5.814;2023-02-01T15:58:24;8.60;81.20
59505;DHT22;45321;53.200;5.814;2023-02-01T16:01:10;8.60;81.30
59505;DHT22;45321;53.200;5.814;2023-02-01T16:03:45;8.50;81.50
59505;DHT22;45321;53.200;5.814;2023-02-01T16:08:51;8.50;81.80
59505;DHT22;45321;53.200;5.814;2023-02-01T16:11:32;8.40;81.80
59505;DHT22;45321;53.200;5.814;2023-02-01T16:16:58;8.40;82.10
59505;DHT22;45321;53.200;5.814;2023-02-01T16:19:33;8.30;82.30
59505;DHT22;45321;53.200;5.814;2023-02-01T16:22:04;8.40;82.50
59505;DHT22;45321;53.200;5.814;2023-02-01T16:24:30;8.40;82.60
59505;DHT22;45321;53.200;5.814;2023-02-01T16:27:07;8.30;82.80
59505;DHT22;45321;53.200;5.814;2023-02-01T16:29:35;8.30;82.90
59505;DHT22;45321;53.200;5.814;2023-02-01T16:32:03;8.30;83.10
59505;DHT22;45321;53.200;5.814;2023-02-01T16:34:35;8.30;83.10
59505;DHT22;45321;53.200;5.814;2023-02-01T16:37:03;8.30;83.10
59505;DHT22;45321;53.200;5.814;2023-02-01T16:39:32;8.30;83.10
59505;DHT22;45321;53.200;5.814;2023-02-01T16:42:17;8.20;82.90
59505;DHT22;45321;53.200;5.814;2023-02-01T16:44:43;8.20;82.70
59505;DHT22;45321;53.200;5.814;2023-02-01T16:47:17;8.20;82.50
59505;DHT22;45321;53.200;5.814;2023-02-01T16:49:47;8.10;82.40
59505;DHT22;45321;53.200;5.814;2023-02-01T16:52:25;8.10;82.20
59505;DHT22;45321;53.200;5.814;2023-02-01T16:54:58;8.10;81.80
59505;DHT22;45321;53.200;5.814;2023-02-01T16:57:24;8.00;81.40
59505;DHT22;45321;53.200;5.814;2023-02-01T16:59:54;8.00;81.50
59505;DHT22;45321;53.200;5.814;2023-02-01T17:02:23;7.90;81.10
59505;DHT22;45321;53.200;5.814;2023-02-01T17:04:55;7.90;81.00
59505;DHT22;45321;53.200;5.814;2023-02-01T17:07:21;7.90;81.10
59505;DHT22;45321;53.200;5.814;2023-02-01T17:09:47;7.80;81.00
59505;DHT22;45321;53.200;5.814;2023-02-01T17:12:33;7.80;80.80
59505;DHT22;45321;53.200;5.814;2023-02-01T17:15:03;7.80;80.50
59505;DHT22;45321;53.200;5.814;2023-02-01T17:17:38;7.80;80.20
59505;DHT22;45321;53.200;5.814;2023-02-01T17:20:19;7.80;79.80
59505;DHT22;45321;53.200;5.814;2023-02-01T17:22:48;7.80;79.50
59505;DHT22;45321;53.200;5.814;2023-02-01T17:28:58;7.80;79.40
59505;DHT22;45321;53.200;5.814;2023-02-01T17:31:24;7.80;79.00
59505;DHT22;45321;53.200;5.814;2023-02-01T17:33:49;7.80;78.60
59505;DHT22;45321;53.200;5.814;2023-02-01T17:36:19;7.80;78.50
59505;DHT22;45321;53.200;5.814;2023-02-01T17:38:45;7.80;78.90
59505;DHT22;45321;53.200;5.814;2023-02-01T17:41:13;7.80;79.00
59505;DHT22;45321;53.200;5.814;2023-02-01T17:43:40;7.90;79.20
59505;DHT22;45321;53.200;5.814;2023-02-01T17:46:18;7.80;79.30
59505;DHT22;45321;53.200;5.814;2023-02-01T17:48:48;7.80;79.40
59505;DHT22;45321;53.200;5.814;2023-02-01T17:51:22;7.80;79.40
59505;DHT22;45321;53.200;5.814;2023-02-01T17:53:51;7.80;79.60
59505;DHT22;45321;53.200;5.814;2023-02-01T17:56:22;7.80;79.50
59505;DHT22;45321;53.200;5.814;2023-02-01T17:58:51;7.80;79.70
59505;DHT22;45321;53.200;5.814;2023-02-01T18:01:22;7.80;79.70
59505;DHT22;45321;53.200;5.814;2023-02-01T18:03:53;7.80;79.90
59505;DHT22;45321;53.200;5.814;2023-02-01T18:06:47;7.80;80.10
59505;DHT22;45321;53.200;5.814;2023-02-01T18:09:17;7.80;80.30
59505;DHT22;45321;53.200;5.814;2023-02-01T18:11:42;7.70;80.40
59505;DHT22;45321;53.200;5.814;2023-02-01T18:14:11;7.70;80.50
59505;DHT22;45321;53.200;5.814;2023-02-01T18:16:38;7.70;80.50
59505;DHT22;45321;53.200;5.814;2023-02-01T18:19:06;7.70;80.50
59505;DHT22;45321;53.200;5.814;2023-02-01T18:21:42;7.70;80.50
59505;DHT22;45321;53.200;5.814;2023-02-01T18:24:15;7.60;80.40
59505;DHT22;45321;53.200;5.814;2023-02-01T18:26:42;7.60;80.30
59505;DHT22;45321;53.200;5.814;2023-02-01T18:29:08;7.60;80.20
59505;DHT22;45321;53.200;5.814;2023-02-01T18:31:47;7.60;79.90
59505;DHT22;45321;53.200;5.814;2023-02-01T18:34:20;7.50;79.60
59505;DHT22;45321;53.200;5.814;2023-02-01T18:36:50;7.50;79.50
59505;DHT22;45321;53.200;5.814;2023-02-01T18:42:05;7.50;79.20
59505;DHT22;45321;53.200;5.814;2023-02-01T18:44:30;7.50;79.00
59505;DHT22;45321;53.200;5.814;2023-02-01T18:46:59;7.50;78.80
59505;DHT22;45321;53.200;5.814;2023-02-01T18:49:25;7.40;78.20
59505;DHT22;45321;53.200;5.814;2023-02-01T18:51:50;7.50;78.20
59505;DHT22;45321;53.200;5.814;2023-02-01T18:54:17;7.40;78.30
59505;DHT22;45321;53.200;5.814;2023-02-01T18:56:43;7.50;78.10
59505;DHT22;45321;53.200;5.814;2023-02-01T18:59:09;7.40;77.70
59505;DHT22;45321;53.200;5.814;2023-02-01T19:01:36;7.40;77.70